createdAt,value
2023-04-22T00:02:09.419Z,13.10
2023-04-22T00:04:38.107Z,13.40
2023-04-22T00:07:06.744Z,13.60
2023-04-22T00:09:35.993Z,12.70
2023-04-22T00:12:05.118Z,12.00
2023-04-22T00:14:34.797Z,12.60
2023-04-22T00:17:03.844Z,12.50
2023-04-22T00:19:32.281Z,13.30
2023-04-22T00:22:00.621Z,12.50
2023-04-22T00:24:29.136Z,12.60
2023-04-22T00:26:57.450Z,13.90
2023-04-22T00:29:26.395Z,15.20
2023-04-22T00:31:55.012Z,13.90
2023-04-22T00:34:23.630Z,14.60
2023-04-22T00:36:51.956Z,13.10
2023-04-22T00:39:20.333Z,13.20
2023-04-22T00:41:48.700Z,12.60
2023-04-22T00:44:17.868Z,12.30
2023-04-22T00:46:46.248Z,12.40
2023-04-22T00:49:15.681Z,12.10
2023-04-22T00:51:44.128Z,12.10
2023-04-22T00:54:12.613Z,12.50
2023-04-22T00:56:40.915Z,11.50
2023-04-22T00:59:10.191Z,10.90
2023-04-22T01:01:38.705Z,5.60
2023-04-22T01:04:07.118Z,11.80
2023-04-22T01:06:35.892Z,11.70
2023-04-22T01:09:04.726Z,11.40
2023-04-22T01:11:33.008Z,8.30
2023-04-22T01:14:01.392Z,10.90
2023-04-22T01:16:30.600Z,11.80
2023-04-22T01:18:58.917Z,12.20
2023-04-22T01:21:29.103Z,11.30
2023-04-22T01:23:57.746Z,10.80
2023-04-22T01:26:26.221Z,11.70
2023-04-22T01:28:54.616Z,8.10
2023-04-22T01:31:23.190Z,12.10
2023-04-22T01:33:51.865Z,11.90
2023-04-22T01:36:20.120Z,11.90
2023-04-22T01:38:48.588Z,11.80
2023-04-22T01:41:17.290Z,11.70
2023-04-22T01:43:45.736Z,11.60
2023-04-22T01:46:16.150Z,7.00
2023-04-22T01:48:49.793Z,11.90
2023-04-22T01:51:19.799Z,5.50
2023-04-22T01:53:48.345Z,11.40
2023-04-22T01:56:17.286Z,12.30
2023-04-22T01:58:45.543Z,11.00
2023-04-22T02:01:14.157Z,12.40
2023-04-22T02:03:42.674Z,9.10
2023-04-22T02:06:11.477Z,11.20
2023-04-22T02:08:39.748Z,7.70
2023-04-22T02:11:08.143Z,11.30
2023-04-22T02:13:37.550Z,6.60
2023-04-22T02:16:07.202Z,11.10
2023-04-22T02:18:35.674Z,11.90
2023-04-22T02:21:04.424Z,7.10
2023-04-22T02:23:32.811Z,10.90
2023-04-22T02:26:01.023Z,10.20
2023-04-22T02:28:29.372Z,8.60
2023-04-22T02:30:57.950Z,11.30
2023-04-22T02:33:26.370Z,7.20
2023-04-22T02:35:54.785Z,10.60
2023-04-22T02:38:23.429Z,11.00
2023-04-22T02:40:51.606Z,11.60
2023-04-22T02:43:20.238Z,6.50
2023-04-22T02:45:48.507Z,7.40
2023-04-22T02:48:16.965Z,10.80
2023-04-22T02:50:45.178Z,6.80
2023-04-22T02:53:13.515Z,11.40
2023-04-22T02:55:41.885Z,6.70
2023-04-22T02:58:10.453Z,6.70
2023-04-22T03:00:38.806Z,11.20
2023-04-22T03:03:07.289Z,6.90
2023-04-22T03:05:35.969Z,10.90
2023-04-22T03:08:04.427Z,7.50
2023-04-22T03:10:32.755Z,5.70
2023-04-22T03:13:00.983Z,10.90
2023-04-22T03:15:29.332Z,10.50
2023-04-22T03:17:57.685Z,6.50
2023-04-22T03:20:26.330Z,11.40
2023-04-22T03:22:55.124Z,7.00
2023-04-22T03:25:23.371Z,7.00
2023-04-22T03:27:51.667Z,10.40
2023-04-22T03:30:20.100Z,7.50
2023-04-22T03:32:48.476Z,10.80
2023-04-22T03:35:17.144Z,4.90
2023-04-22T03:37:45.416Z,6.80
2023-04-22T03:40:14.298Z,10.60
2023-04-22T03:42:42.601Z,9.10
2023-04-22T03:45:11.816Z,7.20
2023-04-22T03:47:42.782Z,10.50
2023-04-22T03:50:11.592Z,5.70
2023-04-22T03:52:40.196Z,8.60
2023-04-22T03:55:10.064Z,11.40
2023-04-22T03:57:38.324Z,6.50
2023-04-22T04:00:09.018Z,9.80
2023-04-22T04:02:37.379Z,6.60
2023-04-22T04:05:09.153Z,7.00
2023-04-22T04:07:37.671Z,10.20
2023-04-22T04:10:08.701Z,10.70
2023-04-22T04:12:37.266Z,5.30
2023-04-22T04:15:08.035Z,10.60
2023-04-22T04:17:36.506Z,10.20
2023-04-22T04:20:06.912Z,5.90
2023-04-22T04:22:35.506Z,9.90
2023-04-22T04:25:04.804Z,9.90
2023-04-22T04:27:33.180Z,10.00
2023-04-22T04:30:03.665Z,11.10
2023-04-22T04:32:33.686Z,9.70
2023-04-22T04:35:02.653Z,10.70
2023-04-22T04:37:30.953Z,6.30
2023-04-22T04:39:59.277Z,10.00
2023-04-22T04:42:29.838Z,5.80
2023-04-22T04:44:58.142Z,9.30
2023-04-22T04:47:27.762Z,10.50
2023-04-22T04:49:57.981Z,9.80
2023-04-22T04:52:26.442Z,9.70
2023-04-22T04:54:54.724Z,9.50
2023-04-22T04:57:23.022Z,9.50
2023-04-22T04:59:51.359Z,9.60
2023-04-22T05:02:19.930Z,9.40
2023-04-22T05:04:48.825Z,9.70
2023-04-22T05:07:17.211Z,9.80
2023-04-22T05:09:45.493Z,10.10
2023-04-22T05:12:14.634Z,9.70
2023-04-22T05:14:43.996Z,9.00
2023-04-22T05:17:12.330Z,9.80
2023-04-22T05:19:41.474Z,9.60
2023-04-22T05:22:10.794Z,10.20
2023-04-22T05:24:39.068Z,9.70
2023-04-22T05:27:07.689Z,9.70
2023-04-22T05:29:36.099Z,10.00
2023-04-22T05:32:04.711Z,9.50
2023-04-22T05:34:33.591Z,9.50
2023-04-22T05:37:03.174Z,9.00
2023-04-22T05:39:31.725Z,9.40
2023-04-22T05:42:00.206Z,9.90
2023-04-22T05:44:28.591Z,9.50
2023-04-22T05:46:56.974Z,9.90
2023-04-22T05:49:25.456Z,10.00
2023-04-22T05:51:53.805Z,9.10
2023-04-22T05:54:22.381Z,10.10
2023-04-22T05:56:51.062Z,9.90
2023-04-22T05:59:21.094Z,9.50
2023-04-22T06:01:50.520Z,9.70
2023-04-22T06:04:20.156Z,9.80
2023-04-22T06:06:49.280Z,9.70
2023-04-22T06:09:18.335Z,10.40
2023-04-22T06:11:49.578Z,9.90
2023-04-22T06:14:17.934Z,9.50
2023-04-22T06:16:46.342Z,10.10
2023-04-22T06:19:14.749Z,9.70
2023-04-22T06:21:43.538Z,10.70
2023-04-22T06:24:11.951Z,9.80
2023-04-22T06:26:40.878Z,10.80
2023-04-22T06:29:09.364Z,11.10
2023-04-22T06:31:37.653Z,10.80
2023-04-22T06:34:05.994Z,10.40
2023-04-22T06:36:36.801Z,10.80
2023-04-22T06:39:05.611Z,10.40
2023-04-22T06:41:34.057Z,11.10
2023-04-22T06:44:02.249Z,10.70
2023-04-22T06:46:30.872Z,10.80
2023-04-22T06:48:59.223Z,11.50
2023-04-22T06:51:27.565Z,10.60
2023-04-22T06:53:57.712Z,11.30
2023-04-22T06:56:26.247Z,11.80
2023-04-22T06:58:55.857Z,11.90
2023-04-22T07:01:24.462Z,11.80
2023-04-22T07:03:53.133Z,11.20
2023-04-22T07:06:21.484Z,11.50
2023-04-22T07:08:49.881Z,10.90
2023-04-22T07:11:18.647Z,11.50
2023-04-22T07:13:46.952Z,11.10
2023-04-22T07:16:15.580Z,11.60
2023-04-22T07:18:44.270Z,11.10
2023-04-22T07:21:12.523Z,12.50
2023-04-22T07:23:40.785Z,10.60
2023-04-22T07:26:09.362Z,10.80
2023-04-22T07:28:37.995Z,11.00
2023-04-22T07:31:06.520Z,11.10
2023-04-22T07:33:35.151Z,9.90
2023-04-22T07:36:04.002Z,10.80
2023-04-22T07:38:32.479Z,10.30
2023-04-22T07:41:00.992Z,9.60
2023-04-22T07:43:29.237Z,8.60
2023-04-22T07:45:57.716Z,8.60
2023-04-22T07:48:26.889Z,8.40
2023-04-22T07:50:55.451Z,7.60
2023-04-22T07:53:23.839Z,8.20
2023-04-22T07:55:52.280Z,7.80
2023-04-22T07:58:20.545Z,7.70
2023-04-22T08:00:48.891Z,8.50
2023-04-22T08:03:17.458Z,8.50
2023-04-22T08:05:46.031Z,7.50
2023-04-22T08:08:14.831Z,7.30
2023-04-22T08:10:43.255Z,6.90
2023-04-22T08:13:11.565Z,6.90
2023-04-22T08:15:39.883Z,6.10
2023-04-22T08:18:08.497Z,6.10
2023-04-22T08:20:36.878Z,5.90
2023-04-22T08:23:06.407Z,5.80
2023-04-22T08:25:35.351Z,5.70
2023-04-22T08:28:03.712Z,5.70
2023-04-22T08:30:32.071Z,4.50
2023-04-22T08:33:00.495Z,4.60
2023-04-22T08:35:28.927Z,4.50
2023-04-22T08:37:57.215Z,4.20
2023-04-22T08:40:26.196Z,3.60
2023-04-22T08:42:55.356Z,3.70
2023-04-22T08:45:24.676Z,3.70
2023-04-22T08:47:54.524Z,2.90
2023-04-22T08:50:22.887Z,4.40
2023-04-22T08:52:51.189Z,3.90
2023-04-22T08:55:20.045Z,4.00
2023-04-22T08:57:49.629Z,3.90
2023-04-22T09:00:19.332Z,3.50
2023-04-22T09:02:49.797Z,3.40
2023-04-22T09:05:19.108Z,3.40
2023-04-22T09:07:47.417Z,3.30
2023-04-22T09:10:16.086Z,3.90
2023-04-22T09:12:44.574Z,3.60
2023-04-22T09:15:13.392Z,3.30
2023-04-22T09:17:42.949Z,2.60
2023-04-22T09:20:12.430Z,2.90
2023-04-22T09:22:42.753Z,3.00
2023-04-22T09:25:17.529Z,3.00
2023-04-22T09:27:50.308Z,2.60
2023-04-22T09:30:19.928Z,2.90
2023-04-22T09:32:56.304Z,3.60
2023-04-22T09:35:28.645Z,3.20
2023-04-22T09:37:57.587Z,3.10
2023-04-22T09:40:26.456Z,2.70
2023-04-22T09:42:55.821Z,4.10
2023-04-22T09:45:32.458Z,3.30
2023-04-22T09:48:04.299Z,3.30
2023-04-22T09:50:32.600Z,3.30
2023-04-22T09:53:03.366Z,3.50
2023-04-22T09:55:34.291Z,3.30
2023-04-22T09:58:08.029Z,3.10
2023-04-22T10:00:39.774Z,3.10
2023-04-22T10:03:10.898Z,3.10
2023-04-22T10:05:40.915Z,3.10
2023-04-22T10:08:10.991Z,3.40
2023-04-22T10:10:40.154Z,3.40
2023-04-22T10:13:09.259Z,3.20
2023-04-22T10:15:40.408Z,3.00
2023-04-22T10:18:12.300Z,3.00
2023-04-22T10:20:41.326Z,2.50
2023-04-22T10:23:14.768Z,2.50
2023-04-22T10:25:43.229Z,3.00
2023-04-22T10:28:13.005Z,2.70
2023-04-22T10:30:41.716Z,2.70
2023-04-22T10:33:36.356Z,2.40
2023-04-22T10:36:09.404Z,2.90
2023-04-22T10:38:39.041Z,2.60
2023-04-22T10:41:07.668Z,2.60
2023-04-22T10:43:43.091Z,2.60
2023-04-22T10:46:41.961Z,2.50
2023-04-22T10:49:11.546Z,2.40
2023-04-22T10:51:40.285Z,2.10
2023-04-22T10:54:09.132Z,2.30
2023-04-22T10:57:02.309Z,2.20
2023-04-22T10:59:31.085Z,2.20
2023-04-22T11:02:02.003Z,1.80
2023-04-22T11:04:31.153Z,2.20
2023-04-22T11:07:14.352Z,1.90
2023-04-22T11:09:45.207Z,2.50
2023-04-22T11:12:44.513Z,2.10
2023-04-22T11:15:15.301Z,1.80
2023-04-22T11:17:45.416Z,1.60
2023-04-22T11:20:16.749Z,2.00
2023-04-22T11:22:46.221Z,2.20
2023-04-22T11:25:14.883Z,1.80
2023-04-22T11:27:43.626Z,1.50
2023-04-22T11:30:15.715Z,1.80
2023-04-22T11:32:48.852Z,1.40
2023-04-22T11:37:47.446Z,1.20
2023-04-22T11:40:29.905Z,1.50
2023-04-22T11:45:28.232Z,1.20
2023-04-22T11:47:56.892Z,1.10
2023-04-22T11:50:28.743Z,1.30
2023-04-22T11:53:00.455Z,1.20
2023-04-22T11:55:30.499Z,1.10
2023-04-22T11:58:00.539Z,1.30
2023-04-22T12:00:33.902Z,1.20
2023-04-22T12:03:04.430Z,1.40
2023-04-22T12:05:38.248Z,1.40
2023-04-22T12:08:11.371Z,1.10
2023-04-22T12:10:44.617Z,1.00
2023-04-22T12:18:16.208Z,1.90
2023-04-22T12:20:44.759Z,1.60
2023-04-22T12:23:14.308Z,1.50
2023-04-22T12:25:43.409Z,1.60
2023-04-22T12:28:12.921Z,1.40
2023-04-22T12:30:41.270Z,1.50
2023-04-22T12:33:10.340Z,1.50
2023-04-22T12:35:38.997Z,1.10
2023-04-22T12:38:07.658Z,1.60
2023-04-22T12:40:36.509Z,1.40
2023-04-22T12:43:05.360Z,1.50
2023-04-22T12:45:33.926Z,1.90
2023-04-22T12:48:02.269Z,2.30
2023-04-22T12:50:30.585Z,1.80
2023-04-22T12:52:59.158Z,2.70
2023-04-22T12:55:27.773Z,2.10
2023-04-22T12:57:56.733Z,1.80
2023-04-22T13:00:25.890Z,2.00
2023-04-22T13:02:54.311Z,1.70
2023-04-22T13:05:22.761Z,2.10
2023-04-22T13:08:05.868Z,2.30
2023-04-22T13:10:36.394Z,1.90
2023-04-22T13:13:17.947Z,2.20
2023-04-22T13:15:52.473Z,1.90
2023-04-22T13:18:22.028Z,2.30
2023-04-22T13:20:51.104Z,2.30
2023-04-22T13:23:20.942Z,2.40
2023-04-22T13:25:49.905Z,2.10
2023-04-22T13:28:18.576Z,2.70
2023-04-22T13:30:47.103Z,2.50
2023-04-22T13:33:15.545Z,2.40
2023-04-22T13:35:43.824Z,2.40
2023-04-22T13:38:12.088Z,2.50
2023-04-22T13:40:40.786Z,2.80
2023-04-22T13:43:09.910Z,2.10
2023-04-22T13:45:38.241Z,3.20
2023-04-22T13:48:06.946Z,2.10
2023-04-22T13:50:35.388Z,2.80
2023-04-22T13:53:04.302Z,2.70
2023-04-22T13:55:33.159Z,2.40
2023-04-22T13:58:01.585Z,2.20
2023-04-22T14:00:30.078Z,2.40
2023-04-22T14:02:58.744Z,2.70
2023-04-22T14:05:27.208Z,2.40
2023-04-22T14:07:56.956Z,2.30
2023-04-22T14:10:27.901Z,2.10
2023-04-22T14:12:57.187Z,3.00
2023-04-22T14:15:26.237Z,3.10
2023-04-22T14:17:54.645Z,2.60
2023-04-22T14:20:24.874Z,2.90
2023-04-22T14:22:53.503Z,2.80
2023-04-22T14:25:22.414Z,2.90
2023-04-22T14:27:50.865Z,3.20
2023-04-22T14:30:21.411Z,2.80
2023-04-22T14:32:50.275Z,2.80
2023-04-22T14:35:19.316Z,3.20
2023-04-22T14:37:47.737Z,3.30
2023-04-22T14:40:16.910Z,2.50
2023-04-22T14:42:46.421Z,3.40
2023-04-22T14:45:15.062Z,3.10
2023-04-22T14:47:43.392Z,3.40
2023-04-22T14:50:12.298Z,3.20
2023-04-22T14:52:41.453Z,3.40
2023-04-22T14:55:19.887Z,3.50
2023-04-22T14:57:52.667Z,3.60
2023-04-22T15:00:21.318Z,3.10
2023-04-22T15:02:50.146Z,3.90
2023-04-22T15:05:18.807Z,3.70
2023-04-22T15:07:47.473Z,3.10
2023-04-22T15:10:16.508Z,3.40
2023-04-22T15:12:45.239Z,3.00
2023-04-22T15:15:15.412Z,2.70
2023-04-22T15:17:44.258Z,2.70
2023-04-22T15:20:14.510Z,5.40
2023-04-22T15:22:43.151Z,2.50
2023-04-22T15:25:12.096Z,2.80
2023-04-22T15:27:40.521Z,2.90
2023-04-22T15:30:10.451Z,3.20
2023-04-22T15:32:39.213Z,3.20
2023-04-22T15:35:08.852Z,3.30
2023-04-22T15:37:37.128Z,3.20
2023-04-22T15:40:09.381Z,2.90
2023-04-22T15:42:37.989Z,3.20
2023-04-22T15:45:08.602Z,2.90
2023-04-22T15:47:36.975Z,3.70
2023-04-22T15:50:08.260Z,2.70
2023-04-22T15:52:38.257Z,3.30
2023-04-22T15:55:07.934Z,3.30
2023-04-22T15:57:36.579Z,2.70
2023-04-22T16:00:12.767Z,2.30
2023-04-22T16:02:44.074Z,2.50
2023-04-22T16:05:14.041Z,3.10
2023-04-22T16:07:42.465Z,2.50
2023-04-22T16:10:11.820Z,2.70
2023-04-22T16:12:41.304Z,3.00
2023-04-22T16:15:11.137Z,2.60
2023-04-22T16:17:43.212Z,2.20
2023-04-22T16:20:12.358Z,3.40
2023-04-22T16:22:40.839Z,2.60
2023-04-22T16:25:10.414Z,2.60
2023-04-22T16:27:38.957Z,2.70
2023-04-22T16:30:09.221Z,2.40
2023-04-22T16:32:37.559Z,2.70
2023-04-22T16:35:08.728Z,2.40
2023-04-22T16:37:37.071Z,2.40
2023-04-22T16:40:07.328Z,2.60
2023-04-22T16:42:35.839Z,2.20
2023-04-22T16:45:05.992Z,2.40
2023-04-22T16:47:34.683Z,3.00
2023-04-22T16:50:03.298Z,3.00
2023-04-22T16:52:31.892Z,2.40
2023-04-22T16:55:00.451Z,2.60
2023-04-22T16:57:28.794Z,3.40
2023-04-22T16:59:57.224Z,3.80
2023-04-22T17:02:25.903Z,4.10
2023-04-22T17:04:54.352Z,4.50
2023-04-22T17:07:22.703Z,4.20
2023-04-22T17:09:51.259Z,3.40
2023-04-22T17:12:19.608Z,3.10
2023-04-22T17:14:47.858Z,3.40
2023-04-22T17:17:16.215Z,4.30
2023-04-22T17:19:44.885Z,4.10
2023-04-22T17:22:13.142Z,5.60
2023-04-22T17:24:41.530Z,4.00
2023-04-22T17:27:10.028Z,4.30
2023-04-22T17:29:38.521Z,4.40
2023-04-22T17:32:07.285Z,4.80
2023-04-22T17:34:35.820Z,5.00
2023-04-22T17:37:04.375Z,5.60
2023-04-22T17:39:32.858Z,6.30
2023-04-22T17:42:01.892Z,5.60
2023-04-22T17:44:31.151Z,5.30
2023-04-22T17:46:59.499Z,5.70
2023-04-22T17:49:27.967Z,5.30
2023-04-22T17:51:56.392Z,6.00
2023-04-22T17:54:25.318Z,6.10
2023-04-22T17:56:53.608Z,5.80
2023-04-22T17:59:22.526Z,6.00
2023-04-22T18:01:50.973Z,5.70
2023-04-22T18:04:19.354Z,6.80
2023-04-22T18:06:47.688Z,7.30
2023-04-22T18:09:16.694Z,7.30
2023-04-22T18:11:45.221Z,7.40
2023-04-22T18:14:13.687Z,5.70
2023-04-22T18:16:42.097Z,6.30
2023-04-22T18:19:10.852Z,6.90
2023-04-22T18:21:43.986Z,9.70
2023-04-22T18:24:18.668Z,7.70
2023-04-22T18:26:48.244Z,6.60
2023-04-22T18:29:16.521Z,8.70
2023-04-22T18:31:45.947Z,7.00
2023-04-22T18:34:15.231Z,6.70
2023-04-22T18:36:43.508Z,6.40
2023-04-22T18:39:12.081Z,6.10
2023-04-22T18:41:42.207Z,7.10
2023-04-22T18:44:10.749Z,8.40
2023-04-22T18:46:39.007Z,9.50
2023-04-22T18:49:07.250Z,7.40
2023-04-22T18:51:35.695Z,8.20
2023-04-22T18:54:04.970Z,7.10
2023-04-22T18:56:33.781Z,6.80
2023-04-22T18:59:02.218Z,7.60
2023-04-22T19:01:30.736Z,6.90
2023-04-22T19:04:01.134Z,7.30
2023-04-22T19:06:29.781Z,7.50
2023-04-22T19:08:58.349Z,6.40
2023-04-22T19:11:26.606Z,6.90
2023-04-22T19:13:55.033Z,7.80
2023-04-22T19:16:26.244Z,7.20
2023-04-22T19:18:55.212Z,8.30
2023-04-22T19:21:23.507Z,8.30
2023-04-22T19:23:52.406Z,8.40
2023-04-22T19:26:21.379Z,9.00
2023-04-22T19:28:49.605Z,8.00
2023-04-22T19:31:18.386Z,10.70
2023-04-22T19:33:48.907Z,9.60
2023-04-22T19:36:17.698Z,9.50
2023-04-22T19:38:46.048Z,10.00
2023-04-22T19:41:14.347Z,11.50
2023-04-22T19:43:42.990Z,10.70
2023-04-22T19:46:11.889Z,11.90
2023-04-22T19:48:41.341Z,14.20
2023-04-22T19:51:10.845Z,12.50
2023-04-22T19:53:40.678Z,14.70
2023-04-22T19:56:09.964Z,15.10
2023-04-22T19:58:39.138Z,12.10
2023-04-22T20:01:08.499Z,12.70
2023-04-22T20:03:37.956Z,11.60
2023-04-22T20:06:07.330Z,13.20
2023-04-22T20:08:35.755Z,12.50
2023-04-22T20:11:04.702Z,13.30
2023-04-22T20:13:33.433Z,13.10
2023-04-22T20:16:03.209Z,12.90
2023-04-22T20:18:32.502Z,13.10
2023-04-22T20:21:00.973Z,13.20
2023-04-22T20:23:29.401Z,14.50
2023-04-22T20:25:58.403Z,16.90
2023-04-22T20:28:43.924Z,15.60
2023-04-22T20:31:12.956Z,16.70
2023-04-22T20:33:42.190Z,16.80
2023-04-22T20:36:11.151Z,17.70
2023-04-22T20:38:39.936Z,19.20
2023-04-22T20:41:09.497Z,19.40
2023-04-22T20:43:38.086Z,21.30
2023-04-22T20:46:06.915Z,19.70
2023-04-22T20:48:35.192Z,19.40
2023-04-22T20:51:04.130Z,19.30
2023-04-22T20:53:32.407Z,20.80
2023-04-22T20:56:00.740Z,22.40
2023-04-22T20:58:29.048Z,22.20
2023-04-22T21:00:57.510Z,22.10
2023-04-22T21:03:28.126Z,23.80
2023-04-22T21:05:58.082Z,22.80
2023-04-22T21:08:26.936Z,22.50
2023-04-22T21:10:56.305Z,21.20
2023-04-22T21:13:25.681Z,21.70
2023-04-22T21:15:58.250Z,24.10
2023-04-22T21:18:28.435Z,22.30
2023-04-22T21:20:57.482Z,24.70
2023-04-22T21:23:26.414Z,24.30
2023-04-22T21:25:55.964Z,25.40
2023-04-22T21:28:25.177Z,24.40
2023-04-22T21:30:54.898Z,24.00
2023-04-22T21:33:24.522Z,25.00
2023-04-22T21:35:52.982Z,24.30
2023-04-22T21:38:21.426Z,25.90
2023-04-22T21:40:49.833Z,26.30
2023-04-22T21:43:18.157Z,25.90
2023-04-22T21:45:46.387Z,28.30
2023-04-22T21:48:15.113Z,27.70
2023-04-22T21:50:43.643Z,28.50
2023-04-22T21:53:12.099Z,27.80
2023-04-22T21:55:40.311Z,27.90
2023-04-22T21:58:08.792Z,26.90
2023-04-22T22:00:38.226Z,26.40
2023-04-22T22:03:06.643Z,27.70
2023-04-22T22:05:36.534Z,26.10
2023-04-22T22:08:05.102Z,26.60
2023-04-22T22:10:33.875Z,26.90
2023-04-22T22:13:02.221Z,26.50
2023-04-22T22:15:30.774Z,26.70
2023-04-22T22:18:00.721Z,27.70
2023-04-22T22:20:29.551Z,26.20
2023-04-22T22:22:57.782Z,27.60
2023-04-22T22:25:26.418Z,28.10
2023-04-22T22:27:54.889Z,29.20
2023-04-22T22:30:23.350Z,28.80
2023-04-22T22:32:51.672Z,29.60
2023-04-22T22:35:20.607Z,30.30
2023-04-22T22:37:49.018Z,29.70
2023-04-22T22:40:17.493Z,28.40
2023-04-22T22:42:46.020Z,26.80
2023-04-22T22:45:14.306Z,26.30
2023-04-22T22:47:43.473Z,27.80
2023-04-22T22:50:12.085Z,27.50
2023-04-22T22:52:40.490Z,26.90
2023-04-22T22:55:09.730Z,26.20
2023-04-22T22:57:38.129Z,26.80
2023-04-22T23:00:10.441Z,26.80
2023-04-22T23:02:38.911Z,25.80
2023-04-22T23:05:10.852Z,24.10
2023-04-22T23:07:39.386Z,25.60
2023-04-22T23:10:10.012Z,24.80
2023-04-22T23:12:38.351Z,24.90
2023-04-22T23:15:08.508Z,24.90
2023-04-22T23:17:36.957Z,25.50
2023-04-22T23:20:09.230Z,26.00
2023-04-22T23:22:39.115Z,25.00
2023-04-22T23:25:10.406Z,26.10
2023-04-22T23:27:40.042Z,26.10
2023-04-22T23:30:10.518Z,26.30
2023-04-22T23:32:40.558Z,24.70
2023-04-22T23:35:12.084Z,24.90
2023-04-22T23:37:44.293Z,26.60
2023-04-22T23:40:13.512Z,25.80
2023-04-22T23:42:41.786Z,26.70
2023-04-22T23:45:12.083Z,26.20
2023-04-22T23:47:40.712Z,26.30
2023-04-22T23:50:11.529Z,27.80
2023-04-22T23:52:40.850Z,26.60
2023-04-22T23:55:13.302Z,28.60
2023-04-22T23:57:42.778Z,28.50
